Time;durP1;ratioP1;P1;durP2;ratioP2;P2;SDS_P1;SDS_P2;PMS_P1;PMS_P2;Temp;Humidity;BMP_temperature;BMP_pressure;BME280_temperature;BME280_humidity;BME280_pressure;Samples;Min_cycle;Max_cycle;Signal;HPM_P1;HPM_P2
2021/12/07 00:00:02;;;;;;;278.60;205.32;;;;;;;2.98;100.00;100154.28;5052629;28;20071;-81
2021/12/07 00:02:28;;;;;;;296.42;232.93;;;;;;;2.97;100.00;100152.66;5044146;28;20049;-80
2021/12/07 00:04:56;;;;;;;289.30;235.02;;;;;;;3.02;100.00;100146.88;5045852;28;20107;-79
2021/12/07 00:07:23;;;;;;;286.13;218.35;;;;;;;2.93;100.00;100153.13;5050590;28;20106;-83
2021/12/07 00:09:50;;;;;;;277.10;208.93;;;;;;;2.97;100.00;100159.69;5048591;28;20512;-79
2021/12/07 00:12:17;;;;;;;273.58;210.32;;;;;;;2.93;100.00;100148.72;5048915;28;20045;-79
2021/12/07 00:14:44;;;;;;;305.10;227.63;;;;;;;2.86;100.00;100134.66;5049578;28;20102;-80
2021/12/07 00:17:12;;;;;;;304.98;229.27;;;;;;;2.92;100.00;100138.41;5050953;28;20049;-82
2021/12/07 00:19:40;;;;;;;284.48;220.23;;;;;;;3.03;100.00;100131.97;5050604;28;20079;-79
2021/12/07 00:22:10;;;;;;;298.30;228.65;;;;;;;3.10;100.00;100132.91;5050971;28;20452;-80
2021/12/07 00:24:37;;;;;;;280.33;234.65;;;;;;;2.87;100.00;100120.53;5048251;28;20091;-79
2021/12/07 00:27:04;;;;;;;304.35;236.98;;;;;;;2.95;100.00;100125.75;5050893;28;20371;-80
2021/12/07 00:29:31;;;;;;;286.15;243.00;;;;;;;3.03;100.00;100126.72;5049336;28;20122;-82
2021/12/07 00:32:16;;;;;;;300.88;224.77;;;;;;;2.86;100.00;100129.41;5048104;28;20045;-80
2021/12/07 00:34:57;;;;;;;308.33;253.10;;;;;;;2.85;100.00;100134.84;5047027;28;20531;-79
2021/12/07 00:37:28;;;;;;;309.00;249.65;;;;;;;2.88;100.00;100130.06;5045284;28;20087;-79
2021/12/07 00:39:55;;;;;;;259.40;190.07;;;;;;;2.91;100.00;100113.97;5047505;28;20110;-79
2021/12/07 00:42:22;;;;;;;291.02;206.27;;;;;;;2.88;100.00;100119.56;5052978;28;20151;-81
2021/12/07 00:44:49;;;;;;;285.13;236.88;;;;;;;2.92;100.00;100114.78;5048602;28;20041;-79
2021/12/07 00:47:17;;;;;;;281.25;206.48;;;;;;;2.90;100.00;100111.50;5043075;28;20049;-80
2021/12/07 00:49:44;;;;;;;288.33;229.35;;;;;;;2.98;100.00;100112.28;5052698;28;20049;-80
2021/12/07 00:52:12;;;;;;;293.85;253.15;;;;;;;2.94;100.00;100104.94;5047132;28;20041;-79
2021/12/07 00:54:40;;;;;;;301.23;225.10;;;;;;;3.04;100.00;100099.47;5048337;28;20448;-83
2021/12/07 00:57:07;;;;;;;298.73;239.98;;;;;;;3.02;100.00;100099.66;5035980;28;20045;-82
2021/12/07 00:59:35;;;;;;;290.13;245.57;;;;;;;3.09;100.00;100098.00;5053742;28;20041;-80
2021/12/07 01:02:02;;;;;;;264.17;228.25;;;;;;;3.03;100.00;100090.00;5053562;28;20052;-79
2021/12/07 01:04:30;;;;;;;264.90;214.43;;;;;;;3.10;100.00;100104.03;5048108;28;20053;-80
2021/12/07 01:07:04;;;;;;;277.52;219.70;;;;;;;3.04;100.00;100123.91;5056353;28;20048;-79
2021/12/07 01:09:38;;;;;;;258.08;214.07;;;;;;;3.03;100.00;100114.41;5052048;28;20051;-80
2021/12/07 01:25:53;;;;;;;239.30;204.98;;;;;;;3.09;100.00;100113.72;5055368;28;20133;-81
2021/12/07 01:28:26;;;;;;;247.57;196.05;;;;;;;3.09;100.00;100099.81;5049217;28;20041;-81
2021/12/07 01:30:58;;;;;;;241.80;201.30;;;;;;;3.14;100.00;100081.72;5054322;28;20488;-80
2021/12/07 01:33:45;;;;;;;255.80;210.50;;;;;;;3.15;100.00;100078.13;5056697;28;20553;-80
2021/12/07 01:36:35;;;;;;;237.52;200.85;;;;;;;3.15;100.00;100070.25;5055298;28;20057;-81
2021/12/07 01:47:41;;;;;;;219.43;177.90;;;;;;;3.02;100.00;100064.72;5022015;28;20068;-78
2021/12/07 01:50:24;;;;;;;226.75;173.73;;;;;;;3.03;100.00;100054.06;5045718;28;20045;-78
2021/12/07 02:01:05;;;;;;;220.80;197.57;;;;;;;3.07;100.00;100036.16;5057690;28;20072;-78
2021/12/07 02:03:31;;;;;;;219.10;196.77;;;;;;;3.08;100.00;100048.28;5059481;28;20053;-78
2021/12/07 02:05:58;;;;;;;208.95;186.50;;;;;;;3.11;100.00;100048.75;5056596;28;20052;-78
2021/12/07 02:08:26;;;;;;;193.98;172.63;;;;;;;3.04;100.00;100037.31;5058696;28;20473;-78
2021/12/07 02:10:58;;;;;;;219.07;188.38;;;;;;;3.06;100.00;100040.59;5058009;28;20048;-78
2021/12/07 02:14:14;;;;;;;210.70;189.53;;;;;;;3.06;100.00;100034.53;5057872;28;20481;-80
2021/12/07 02:16:25;;;;;;;205.20;185.25;;;;;;;3.10;100.00;100034.00;5057165;28;20325;-79
2021/12/07 02:18:52;;;;;;;210.37;188.13;;;;;;;3.00;100.00;100035.25;5056206;28;20049;-78
2021/12/07 02:21:23;;;;;;;172.13;150.10;;;;;;;3.01;100.00;100042.91;5052936;28;20303;-79
2021/12/07 02:23:50;;;;;;;175.93;152.52;;;;;;;3.06;100.00;100037.16;5057700;28;20133;-79
2021/12/07 02:26:18;;;;;;;182.73;150.45;;;;;;;3.02;100.00;100036.69;5058069;28;20456;-80
2021/12/07 02:28:44;;;;;;;229.70;206.63;;;;;;;2.92;100.00;100041.34;5057363;28;20118;-79
2021/12/07 02:31:12;;;;;;;216.57;194.43;;;;;;;2.87;100.00;100039.22;5054996;28;20056;-78
2021/12/07 02:33:40;;;;;;;204.65;183.13;;;;;;;2.91;100.00;100037.09;5053084;28;20049;-78
2021/12/07 02:36:08;;;;;;;231.77;208.27;;;;;;;2.80;100.00;100021.72;5050493;28;20387;-78
2021/12/07 02:38:37;;;;;;;200.55;179.02;;;;;;;2.84;100.00;100030.88;5056733;28;20049;-81
2021/12/07 02:41:05;;;;;;;215.13;192.77;;;;;;;2.88;100.00;100026.94;5058441;28;20053;-80
2021/12/07 02:43:32;;;;;;;238.60;215.90;;;;;;;2.88;100.00;100017.25;5056194;28;20491;-80
2021/12/07 02:45:58;;;;;;;225.75;203.63;;;;;;;2.89;100.00;100021.50;5058255;28;20045;-78
2021/12/07 02:48:25;;;;;;;209.35;188.60;;;;;;;2.86;100.00;100015.78;5059492;28;20056;-82
2021/12/07 02:50:52;;;;;;;202.90;181.13;;;;;;;2.93;100.00;100012.28;5057407;28;20067;-82
2021/12/07 02:53:24;;;;;;;218.02;196.15;;;;;;;2.80;100.00;100001.56;5056613;28;20114;-79
2021/12/07 02:55:53;;;;;;;228.10;205.20;;;;;;;2.87;100.00;99991.19;5057680;28;20059;-80
2021/12/07 02:58:20;;;;;;;191.80;171.68;;;;;;;2.83;100.00;99995.16;5058233;28;20378;-78
2021/12/07 03:00:56;;;;;;;184.70;165.30;;;;;;;2.88;100.00;100000.72;5172322;22;21235;-77
2021/12/07 03:03:22;;;;;;;177.10;158.65;;;;;;;2.84;100.00;99994.16;5082072;28;20109;-78
2021/12/07 03:05:59;;;;;;;203.77;182.65;;;;;;;2.85;100.00;100008.94;5083712;28;20121;-77
2021/12/07 03:27:52;;;;;;;186.00;167.73;;;;;;;2.95;100.00;100009.50;5078205;28;20473;-81
2021/12/07 03:30:19;;;;;;;176.30;158.07;;;;;;;2.99;100.00;100005.53;5082580;28;20052;-83
2021/12/07 03:32:46;;;;;;;150.65;134.52;;;;;;;2.90;100.00;100015.25;5079839;28;20056;-78
2021/12/07 03:35:13;;;;;;;149.90;134.07;;;;;;;2.98;100.00;100011.78;5082164;28;20044;-78
2021/12/07 03:37:40;;;;;;;190.32;171.60;;;;;;;3.01;100.00;100014.06;5086082;28;20070;-81
2021/12/07 03:40:09;;;;;;;194.35;176.45;;;;;;;3.00;100.00;100014.25;5080607;28;20141;-78
2021/12/07 03:42:36;;;;;;;196.75;178.38;;;;;;;3.06;100.00;100003.06;5093213;28;20043;-78
2021/12/07 03:45:06;;;;;;;196.80;178.38;;;;;;;3.00;100.00;99988.81;5081912;28;20049;-79
2021/12/07 03:47:33;;;;;;;171.13;155.15;;;;;;;3.02;100.00;100004.38;5082875;28;20048;-81
2021/12/07 03:50:00;;;;;;;182.82;166.48;;;;;;;2.97;100.00;99991.81;5082669;28;20048;-78
2021/12/07 03:52:27;;;;;;;189.15;172.13;;;;;;;3.02;100.00;100005.19;5069906;28;20048;-78
2021/12/07 03:54:53;;;;;;;162.95;147.05;;;;;;;2.97;100.00;99994.44;5079641;28;20060;-80
2021/12/07 03:57:27;;;;;;;182.57;165.75;;;;;;;2.95;100.00;99999.81;5094693;28;20044;-82
2021/12/07 03:59:53;;;;;;;159.75;144.52;;;;;;;3.01;100.00;100011.44;5083566;28;20052;-78
2021/12/07 04:02:22;;;;;;;170.40;154.10;;;;;;;3.12;100.00;100012.84;5083591;28;20415;-81
2021/12/07 04:04:53;;;;;;;157.43;141.73;;;;;;;2.98;100.00;99996.84;5084208;28;20044;-82
2021/12/07 04:07:20;;;;;;;190.77;173.23;;;;;;;2.97;100.00;99986.56;5081729;28;20075;-78
2021/12/07 04:09:48;;;;;;;176.05;159.05;;;;;;;2.99;100.00;99974.06;5080135;28;20056;-79
2021/12/07 04:12:15;;;;;;;165.02;148.88;;;;;;;2.98;100.00;99972.44;5074348;28;20114;-79
2021/12/07 04:14:42;;;;;;;174.18;157.82;;;;;;;2.87;100.00;99986.75;5082713;28;20048;-80
2021/12/07 04:17:09;;;;;;;161.73;146.60;;;;;;;2.94;100.00;99979.03;5083270;28;20052;-78
2021/12/07 04:19:37;;;;;;;175.73;159.25;;;;;;;2.97;100.00;99973.44;5088511;28;20365;-80
2021/12/07 04:22:05;;;;;;;182.23;165.63;;;;;;;3.02;100.00;99975.53;5078227;28;20049;-79
2021/12/07 04:24:31;;;;;;;174.27;157.55;;;;;;;2.93;100.00;99983.44;5085232;28;20048;-78
2021/12/07 04:26:58;;;;;;;167.45;150.90;;;;;;;2.88;100.00;99992.84;5077741;28;20056;-79
2021/12/07 04:29:25;;;;;;;154.27;138.95;;;;;;;2.83;100.00;100000.41;5081446;28;20113;-79
2021/12/07 04:31:52;;;;;;;201.77;182.05;;;;;;;2.84;100.00;100000.22;5089542;28;20078;-81
2021/12/07 04:34:18;;;;;;;158.70;142.98;;;;;;;2.82;100.00;99993.53;5076452;28;20052;-80
2021/12/07 04:36:47;;;;;;;176.20;159.45;;;;;;;2.85;100.00;100001.06;5081532;28;20494;-78
2021/12/07 04:39:13;;;;;;;167.43;150.93;;;;;;;2.91;100.00;99995.94;5081621;28;20105;-78
2021/12/07 04:41:43;;;;;;;173.23;156.27;;;;;;;2.90;100.00;100002.16;5084746;28;20081;-79
2021/12/07 04:44:10;;;;;;;179.30;161.93;;;;;;;2.94;100.00;99995.59;5083347;28;20083;-80
2021/12/07 04:46:43;;;;;;;168.13;150.90;;;;;;;3.00;100.00;100004.56;5069961;28;20056;-79
2021/12/07 04:57:39;;;;;;;184.75;167.02;;;;;;;2.97;100.00;100003.09;5057754;28;20051;-79
2021/12/07 05:00:07;;;;;;;166.40;149.60;;;;;;;2.97;100.00;100015.41;5078163;28;20160;-79
2021/12/07 05:02:36;;;;;;;171.18;153.70;;;;;;;3.00;100.00;100019.50;5084475;28;20049;-82
2021/12/07 05:05:03;;;;;;;191.18;173.27;;;;;;;3.03;100.00;100014.72;5083702;28;20062;-79
2021/12/07 05:07:35;;;;;;;185.40;168.20;;;;;;;3.14;100.00;100006.41;5093044;28;20051;-79
2021/12/07 05:10:19;;;;;;;;;;;;;;;3.13;100.00;100012.66;5090206;28;20056;-78
2021/12/07 05:16:02;;;;;;;152.80;137.40;;;;;;;3.22;100.00;99995.06;5030148;28;20055;-78
2021/12/07 05:18:54;;;;;;;169.20;152.85;;;;;;;3.21;100.00;99990.81;5078379;28;20471;-80
2021/12/07 05:24:10;;;;;;;203.50;184.57;;;;;;;3.26;100.00;99991.09;5090910;28;20067;-79
2021/12/07 05:37:49;;;;;;;;;;;;;;;3.30;100.00;99986.28;5088045;28;20749;-80
2021/12/07 05:40:21;;;;;;;178.57;161.55;;;;;;;3.36;100.00;99989.06;5086750;28;20307;-79
2021/12/07 05:42:49;;;;;;;161.27;145.18;;;;;;;3.30;100.00;99984.50;5086950;28;20117;-81
2021/12/07 05:45:19;;;;;;;147.93;132.35;;;;;;;3.25;100.00;99984.22;5087781;28;20109;-81
2021/12/07 05:47:46;;;;;;;153.73;138.15;;;;;;;3.28;100.00;99972.53;5083688;28;20051;-79
2021/12/07 05:50:17;;;;;;;172.65;156.43;;;;;;;3.20;100.00;99960.28;5084214;28;20450;-80
2021/12/07 05:52:43;;;;;;;190.60;172.18;;;;;;;3.28;100.00;99975.16;5087999;28;20052;-82
2021/12/07 05:55:12;;;;;;;172.45;155.82;;;;;;;3.19;100.00;99972.59;5081629;28;20472;-79
2021/12/07 05:57:40;;;;;;;190.23;172.45;;;;;;;3.20;100.00;99976.03;5080431;28;20136;-81
2021/12/07 06:00:11;;;;;;;173.38;155.95;;;;;;;3.33;100.00;99991.19;5079153;28;20041;-81
2021/12/07 06:02:38;;;;;;;168.23;151.07;;;;;;;3.22;100.00;99972.25;5077778;28;20121;-79
2021/12/07 06:05:05;;;;;;;179.73;162.15;;;;;;;3.22;100.00;99974.88;5077544;28;20056;-81
2021/12/07 06:07:32;;;;;;;171.50;154.38;;;;;;;3.30;100.00;99981.88;5079734;28;20052;-82
2021/12/07 06:09:59;;;;;;;202.90;183.30;;;;;;;3.44;100.00;99973.22;5079856;28;20048;-82
2021/12/07 06:12:26;;;;;;;181.13;163.50;;;;;;;3.35;100.00;99978.72;5074072;28;20343;-82
2021/12/07 06:14:55;;;;;;;179.07;161.55;;;;;;;3.19;100.00;99971.78;5073806;28;20531;-82
2021/12/07 06:17:22;;;;;;;171.52;152.77;;;;;;;3.20;100.00;99976.03;5083523;28;20117;-80
2021/12/07 06:19:49;;;;;;;183.73;164.10;;;;;;;3.19;100.00;99985.72;5074642;28;20106;-79
2021/12/07 06:22:16;;;;;;;158.90;141.98;;;;;;;3.18;100.00;99984.09;5078685;28;20044;-79
2021/12/07 06:24:43;;;;;;;171.93;153.25;;;;;;;3.17;100.00;99976.38;5078938;28;20562;-79
2021/12/07 06:27:10;;;;;;;165.82;148.20;;;;;;;3.28;100.00;99973.34;5074511;28;20044;-79
2021/12/07 06:29:39;;;;;;;165.75;148.05;;;;;;;3.39;100.00;99985.25;5080929;28;20052;-78
2021/12/07 06:32:08;;;;;;;183.73;165.30;;;;;;;3.41;100.00;99978.00;5079240;28;20044;-79
2021/12/07 06:34:35;;;;;;;186.68;169.18;;;;;;;3.47;100.00;99966.78;5082445;28;20086;-79
2021/12/07 06:37:05;;;;;;;189.25;169.93;;;;;;;3.56;100.00;99973.59;5077073;28;20086;-80
2021/12/07 06:39:32;;;;;;;184.05;166.25;;;;;;;3.72;100.00;99975.25;5094004;28;20464;-79
2021/12/07 06:41:59;;;;;;;173.00;155.25;;;;;;;3.59;100.00;99996.88;5075995;28;20044;-80
2021/12/07 06:44:27;;;;;;;209.77;190.50;;;;;;;6.35;100.00;99986.16;5079084;28;20056;-79
2021/12/07 06:46:54;;;;;;;220.63;200.65;;;;;;;4.33;100.00;99986.44;5078772;28;20538;-78
2021/12/07 06:49:22;;;;;;;177.27;160.43;;;;;;;3.87;100.00;99960.34;5079168;28;20122;-77
2021/12/07 06:51:51;;;;;;;168.07;151.98;;;;;;;3.81;100.00;99960.22;5086209;28;20048;-77
2021/12/07 06:54:19;;;;;;;181.45;164.57;;;;;;;3.65;100.00;99987.47;5083185;28;20048;-77
2021/12/07 06:56:45;;;;;;;178.48;161.30;;;;;;;3.52;100.00;99976.78;5078701;28;20051;-80
2021/12/07 06:59:15;;;;;;;168.68;152.07;;;;;;;3.61;100.00;99968.63;5080719;28;20048;-79
2021/12/07 07:01:42;;;;;;;173.52;156.65;;;;;;;3.57;100.00;99969.16;5088285;28;20113;-77
2021/12/07 07:04:11;;;;;;;171.05;154.27;;;;;;;3.52;100.00;99971.53;5080961;28;20109;-77
2021/12/07 07:06:40;;;;;;;286.35;225.27;;;;;;;3.58;100.00;99969.00;5084736;28;20585;-77
2021/12/07 07:09:07;;;;;;;247.07;201.27;;;;;;;3.55;100.00;99964.09;5083762;28;20102;-78
2021/12/07 07:11:33;;;;;;;174.25;156.88;;;;;;;3.63;100.00;99944.81;5089442;28;20121;-79
2021/12/07 07:14:01;;;;;;;180.70;161.25;;;;;;;3.65;100.00;99950.72;5071940;28;20118;-76
2021/12/07 07:16:28;;;;;;;173.27;155.57;;;;;;;3.64;100.00;99954.34;5082502;28;20117;-79
2021/12/07 07:18:55;;;;;;;160.32;143.60;;;;;;;3.55;100.00;99968.53;5081680;28;20045;-79
2021/12/07 07:21:22;;;;;;;181.50;164.43;;;;;;;3.68;100.00;99971.38;5045534;28;20383;-77
2021/12/07 07:23:51;;;;;;;179.95;162.60;;;;;;;3.75;100.00;99966.19;5040833;28;20066;-77
2021/12/07 07:26:19;;;;;;;173.38;156.32;;;;;;;3.82;100.00;99959.25;5036620;28;20056;-79
2021/12/07 07:28:46;;;;;;;179.77;162.70;;;;;;;3.76;100.00;99962.59;5034710;28;20045;-79
2021/12/07 07:31:19;;;;;;;180.45;163.00;;;;;;;3.90;100.00;99960.00;5042049;28;20049;-76
2021/12/07 07:33:45;;;;;;;177.15;160.75;;;;;;;3.86;100.00;99965.78;5034350;28;20064;-78
2021/12/07 07:36:12;;;;;;;178.50;161.43;;;;;;;3.90;100.00;99967.88;5032525;28;20469;-77
2021/12/07 07:38:40;;;;;;;180.35;161.75;;;;;;;3.96;100.00;99961.06;5039719;28;20056;-77
2021/12/07 07:41:08;;;;;;;178.43;161.55;;;;;;;3.79;100.00;99964.88;5033406;28;20123;-77
2021/12/07 07:43:35;;;;;;;172.05;156.40;;;;;;;3.82;100.00;99954.81;5032646;28;20057;-76
2021/12/07 07:46:02;;;;;;;170.73;154.30;;;;;;;3.83;100.00;99953.00;5034866;28;20057;-76
2021/12/07 07:48:29;;;;;;;167.85;151.38;;;;;;;5.73;100.00;99950.94;5036075;28;20131;-79
2021/12/07 07:50:56;;;;;;;236.32;214.93;;;;;;;5.73;100.00;99958.84;5045879;28;20106;-80
2021/12/07 07:53:23;;;;;;;208.95;191.25;;;;;;;4.21;100.00;99982.63;5047519;28;20044;-80
2021/12/07 07:55:50;;;;;;;177.98;162.52;;;;;;;4.02;100.00;99972.66;5036798;28;20049;-79
2021/12/07 07:58:18;;;;;;;193.32;175.95;;;;;;;3.86;100.00;99979.72;5034899;28;20239;-80
2021/12/07 08:00:47;;;;;;;190.48;174.07;;;;;;;3.88;100.00;99995.31;5051332;28;20088;-79
2021/12/07 08:03:13;;;;;;;196.30;179.25;;;;;;;3.89;100.00;100017.94;5028775;28;20053;-78
2021/12/07 08:05:40;;;;;;;188.80;171.68;;;;;;;3.99;100.00;99994.03;5039486;28;20053;-79
2021/12/07 08:08:07;;;;;;;188.05;172.45;;;;;;;3.86;100.00;99999.91;5035649;28;20103;-78
2021/12/07 08:10:35;;;;;;;179.02;163.05;;;;;;;3.98;100.00;99997.66;5032450;28;20045;-80
2021/12/07 08:13:04;;;;;;;161.25;145.85;;;;;;;4.44;100.00;99987.75;5035141;28;20049;-80
2021/12/07 08:15:36;;;;;;;184.43;167.48;;;;;;;4.04;100.00;99966.22;5035809;28;20089;-79
2021/12/07 08:18:03;;;;;;;164.63;149.37;;;;;;;4.01;100.00;99963.97;5038623;28;20095;-78
2021/12/07 08:20:30;;;;;;;152.15;138.57;;;;;;;3.99;100.00;99968.56;5039398;28;20365;-79
2021/12/07 08:22:58;;;;;;;193.90;172.57;;;;;;;4.03;100.00;99967.22;5040848;28;20052;-77
2021/12/07 08:25:25;;;;;;;295.90;217.02;;;;;;;4.03;100.00;99969.84;5041288;28;20056;-79
2021/12/07 08:27:52;;;;;;;192.55;165.55;;;;;;;4.00;100.00;99943.94;5047517;28;20053;-77
2021/12/07 08:30:19;;;;;;;178.32;160.68;;;;;;;3.94;100.00;99936.78;5038628;28;20056;-78
2021/12/07 08:32:47;;;;;;;178.15;161.07;;;;;;;4.00;100.00;99916.84;5039929;28;20064;-77
2021/12/07 08:35:15;;;;;;;176.25;159.02;;;;;;;3.97;100.00;99906.72;5039891;28;20060;-78
2021/12/07 08:37:44;;;;;;;177.85;162.05;;;;;;;4.02;100.00;99928.78;5037925;28;20053;-79
2021/12/07 08:40:12;;;;;;;175.93;160.02;;;;;;;4.05;100.00;99927.63;5039516;28;20049;-79
2021/12/07 08:42:39;;;;;;;179.90;162.30;;;;;;;4.09;100.00;99927.09;5047729;28;20053;-81
2021/12/07 08:45:06;;;;;;;202.05;180.10;;;;;;;4.15;100.00;99927.34;5039843;28;20045;-80
2021/12/07 08:47:33;;;;;;;226.93;183.95;;;;;;;4.23;100.00;99917.53;5040078;28;20461;-78
2021/12/07 08:50:02;;;;;;;162.27;146.27;;;;;;;4.20;100.00;99904.75;5040330;28;20052;-78
2021/12/07 08:52:29;;;;;;;160.52;145.38;;;;;;;4.32;100.00;99905.09;5040069;28;20064;-80
2021/12/07 09:00:24;;;;;;;224.25;204.85;;;;;;;4.22;100.00;99926.44;5039130;28;20106;-79
2021/12/07 09:02:51;;;;;;;264.20;229.55;;;;;;;4.19;100.00;99915.47;5037082;28;20126;-79
2021/12/07 09:05:19;;;;;;;205.90;186.30;;;;;;;4.28;100.00;99930.94;5040780;28;20060;-79
2021/12/07 09:07:46;;;;;;;205.18;187.25;;;;;;;4.31;100.00;99929.78;5041097;28;20119;-79
2021/12/07 09:10:13;;;;;;;197.65;180.18;;;;;;;4.31;100.00;99903.47;5043753;28;20103;-78
2021/12/07 09:12:40;;;;;;;189.48;171.02;;;;;;;4.27;100.00;99900.41;5042368;28;20111;-79
2021/12/07 09:15:07;;;;;;;181.45;164.02;;;;;;;4.31;100.00;99898.22;5039221;28;20466;-80
2021/12/07 09:17:35;;;;;;;211.05;190.15;;;;;;;4.24;100.00;99887.63;5040017;28;20052;-79
2021/12/07 09:20:03;;;;;;;197.45;178.98;;;;;;;4.40;100.00;99905.00;5037502;28;20052;-79
2021/12/07 09:22:32;;;;;;;208.18;189.55;;;;;;;4.48;100.00;99880.38;5039273;28;20044;-79
2021/12/07 09:24:59;;;;;;;211.52;192.43;;;;;;;4.44;100.00;99889.66;5038371;28;20195;-79
2021/12/07 09:27:26;;;;;;;206.05;187.40;;;;;;;4.40;100.00;99885.78;5047891;28;20544;-78
2021/12/07 09:29:53;;;;;;;206.95;188.38;;;;;;;4.55;100.00;99879.47;5040051;28;20114;-79
2021/12/07 09:32:21;;;;;;;186.90;169.70;;;;;;;4.46;100.00;99880.59;5040054;28;20114;-79
2021/12/07 09:34:48;;;;;;;176.27;158.32;;;;;;;4.59;100.00;99888.59;5039182;28;20057;-80
2021/12/07 09:37:15;;;;;;;162.43;146.05;;;;;;;4.51;100.00;99882.69;5038201;28;20425;-80
2021/12/07 09:39:43;;;;;;;155.93;141.02;;;;;;;4.55;100.00;99878.66;5038989;28;20060;-79
2021/12/07 09:42:10;;;;;;;171.90;156.20;;;;;;;4.66;100.00;99879.97;5048932;28;20996;-79
2021/12/07 09:44:37;;;;;;;167.45;151.80;;;;;;;4.67;100.00;99894.75;5039776;28;20103;-79
2021/12/07 09:47:04;;;;;;;179.70;163.05;;;;;;;4.70;100.00;99902.28;5039534;28;20111;-78
2021/12/07 09:49:30;;;;;;;172.75;156.07;;;;;;;4.75;100.00;99903.34;5041924;28;20053;-79
2021/12/07 09:51:57;;;;;;;179.95;163.48;;;;;;;4.64;100.00;99916.19;5043239;28;20476;-79
2021/12/07 09:54:24;;;;;;;175.38;159.20;;;;;;;4.65;100.00;99907.28;5043752;28;20119;-78
2021/12/07 09:56:52;;;;;;;150.55;136.63;;;;;;;4.58;100.00;99900.13;5051204;28;20501;-80
2021/12/07 09:59:19;;;;;;;146.02;130.90;;;;;;;4.67;100.00;99894.75;5041558;28;20111;-79
2021/12/07 10:01:46;;;;;;;136.35;122.65;;;;;;;4.63;100.00;99893.50;5040637;28;20057;-79
2021/12/07 10:04:19;;;;;;;144.75;130.38;;;;;;;4.69;100.00;99898.84;5043181;28;20182;-79
2021/12/07 10:06:46;;;;;;;162.43;146.68;;;;;;;4.71;100.00;99874.97;5043078;28;20294;-80
2021/12/07 10:09:13;;;;;;;163.80;149.48;;;;;;;4.65;100.00;99871.25;5043243;28;20046;-80
2021/12/07 10:11:40;;;;;;;157.70;143.85;;;;;;;4.66;100.00;99872.91;5049386;28;20060;-80
2021/12/07 10:14:08;;;;;;;158.52;143.75;;;;;;;4.78;100.00;99871.41;5041964;28;20119;-80
2021/12/07 10:16:35;;;;;;;160.00;145.95;;;;;;;4.64;100.00;99866.22;5034989;28;20072;-80
2021/12/07 10:19:02;;;;;;;164.25;149.98;;;;;;;4.57;100.00;99859.06;5043124;28;20061;-79
2021/12/07 10:21:38;;;;;;;176.32;160.77;;;;;;;4.62;100.00;99868.19;5043079;28;20057;-78
2021/12/07 10:24:09;;;;;;;170.32;154.65;;;;;;;4.75;100.00;99850.75;5043078;28;20060;-79
2021/12/07 10:26:38;;;;;;;163.27;149.23;;;;;;;4.59;100.00;99845.72;5048519;28;20049;-80
2021/12/07 10:29:11;;;;;;;149.57;136.55;;;;;;;4.69;100.00;99862.00;5041700;28;20084;-80
2021/12/07 10:31:41;;;;;;;145.65;133.30;;;;;;;4.66;100.00;99851.88;5034697;28;20488;-79
2021/12/07 10:34:11;;;;;;;142.75;129.93;;;;;;;4.68;100.00;99838.50;5042936;28;20041;-80
2021/12/07 10:36:42;;;;;;;147.65;134.60;;;;;;;4.62;100.00;99826.94;5043196;28;20049;-80
2021/12/07 10:39:13;;;;;;;163.80;149.15;;;;;;;4.63;100.00;99848.78;5042589;28;20448;-79
2021/12/07 10:41:43;;;;;;;184.75;168.40;;;;;;;4.64;100.00;99847.78;5048960;28;20048;-81
2021/12/07 10:44:13;;;;;;;169.85;155.77;;;;;;;4.78;100.00;99853.00;5040759;28;20068;-79
2021/12/07 10:46:57;;;;;;;184.68;169.00;;;;;;;4.75;100.00;99850.75;5042069;28;20057;-81
2021/12/07 10:49:33;;;;;;;187.45;171.60;;;;;;;4.73;100.00;99851.94;5033761;28;20072;-80
2021/12/07 10:52:16;;;;;;;202.18;184.48;;;;;;;4.65;100.00;99839.69;5034749;28;20128;-80
2021/12/07 10:54:47;;;;;;;181.50;164.77;;;;;;;4.67;100.00;99829.81;5035279;28;20049;-79
2021/12/07 10:57:18;;;;;;;201.75;183.60;;;;;;;4.86;100.00;99825.72;5015695;28;20049;-79
2021/12/07 11:00:00;;;;;;;189.95;171.73;;;;;;;4.85;100.00;99844.34;5039873;28;20048;-79
2021/12/07 11:02:30;;;;;;;202.68;183.15;;;;;;;4.78;100.00;99844.25;5038352;28;20045;-79
2021/12/07 11:04:58;;;;;;;197.60;179.20;;;;;;;4.79;100.00;99851.16;5043791;28;20056;-77
2021/12/07 11:07:26;;;;;;;194.70;177.60;;;;;;;4.62;100.00;99842.72;5040310;28;20111;-78
2021/12/07 11:10:00;;;;;;;196.95;179.77;;;;;;;4.67;100.00;99832.44;5040396;28;20050;-82
2021/12/07 11:12:32;;;;;;;201.25;184.50;;;;;;;4.66;100.00;99819.47;5049841;28;20049;-80
2021/12/07 11:15:01;;;;;;;199.85;182.98;;;;;;;4.68;100.00;99828.00;5038224;28;20053;-79
2021/12/07 11:17:30;;;;;;;216.45;198.45;;;;;;;4.61;100.00;99827.13;5041353;28;20131;-80
2021/12/07 11:19:58;;;;;;;218.13;199.52;;;;;;;4.68;100.00;99822.72;5043209;28;20468;-79
2021/12/07 11:22:27;;;;;;;199.93;183.07;;;;;;;4.68;100.00;99820.09;5040151;28;20041;-80
2021/12/07 11:24:55;;;;;;;210.20;193.23;;;;;;;4.76;100.00;99815.53;5040625;28;20124;-80
2021/12/07 11:30:12;;;;;;;163.68;148.45;;;;;;;4.56;100.00;99817.97;5038740;28;20134;-77
2021/12/07 11:32:44;;;;;;;188.23;171.60;;;;;;;4.59;100.00;99812.34;5037455;28;20103;-79
2021/12/07 11:35:14;;;;;;;175.55;159.23;;;;;;;4.72;100.00;99808.19;5040598;28;20132;-81
2021/12/07 11:37:43;;;;;;;213.57;195.25;;;;;;;4.77;100.00;99798.72;5041351;28;20547;-79
2021/12/07 11:40:10;;;;;;;228.65;209.15;;;;;;;4.79;100.00;99794.09;5040642;28;20493;-78
2021/12/07 11:42:42;;;;;;;221.15;201.95;;;;;;;4.91;100.00;99801.47;5048603;28;20049;-80
2021/12/07 11:45:14;;;;;;;193.40;175.73;;;;;;;4.73;100.00;99799.31;5040468;28;20053;-80
2021/12/07 11:47:43;;;;;;;185.55;168.98;;;;;;;4.82;100.00;99803.44;5038239;28;20049;-79
2021/12/07 11:50:21;;;;;;;207.85;190.13;;;;;;;4.59;100.00;99807.06;5040542;28;20455;-80
2021/12/07 11:52:50;;;;;;;212.18;193.75;;;;;;;4.50;100.00;99796.88;5039637;28;20110;-79
2021/12/07 11:55:19;;;;;;;219.50;201.13;;;;;;;4.49;100.00;99800.53;5041025;28;20111;-78
2021/12/07 11:57:46;;;;;;;269.35;241.20;;;;;;;4.41;100.00;99800.63;5048298;28;20123;-80
2021/12/07 12:00:20;;;;;;;432.67;349.80;;;;;;;4.41;100.00;99792.75;5039516;28;20049;-78
2021/12/07 12:02:47;;;;;;;223.65;202.38;;;;;;;4.46;100.00;99793.00;5038733;28;20049;-81
2021/12/07 12:05:15;;;;;;;207.15;187.32;;;;;;;4.70;100.00;99794.44;5040956;28;20052;-80
2021/12/07 12:07:44;;;;;;;192.80;175.32;;;;;;;4.69;100.00;99800.66;5040727;28;20044;-80
2021/12/07 12:10:13;;;;;;;217.65;197.95;;;;;;;4.65;100.00;99797.63;5039634;28;20489;-80
2021/12/07 12:12:53;;;;;;;233.20;211.65;;;;;;;4.74;100.00;99803.56;5048166;28;20060;-80
2021/12/07 12:15:37;;;;;;;207.15;188.90;;;;;;;4.69;100.00;99813.81;5039291;28;20046;-79
2021/12/07 12:18:13;;;;;;;224.95;205.10;;;;;;;4.69;100.00;99801.50;5038847;28;20489;-80
2021/12/07 12:20:58;;;;;;;231.38;211.55;;;;;;;4.66;100.00;99803.69;5038931;28;20477;-78
2021/12/07 12:23:34;;;;;;;237.55;216.93;;;;;;;4.74;100.00;99795.66;5039060;28;20038;-79
2021/12/07 12:26:12;;;;;;;238.88;218.00;;;;;;;4.68;100.00;99801.69;5042931;28;20064;-79
2021/12/07 12:28:42;;;;;;;233.85;213.02;;;;;;;4.66;100.00;99803.69;5044655;28;20049;-77
2021/12/07 12:31:12;;;;;;;218.43;199.50;;;;;;;4.71;100.00;99811.84;5042466;28;20045;-79